Terminal Aerodrome Forecast
Issued by NWS

Home | Current Version | Previous Version | Text Only | Print | Product List | Glossary On
Versions: 1 2 3 4 5 6 7 8 9 10 11 12 13 14 15 16 17 18 19
000
FTUS43 KICT 191143
TAFCNU
TAF
KCNU 191143Z 1912/2012 07009KT P6SM VCTS BKN035CB
     FM191500 16013KT P6SM BKN100
     FM192200 16013KT P6SM VCTS BKN050CB=

USA.gov is the U.S. government's official web portal to all federal, state and local government web resources and services.